sensor_id;sensor_type;location;lat;lon;timestamp;temperature;humidity
21163;DHT22;10739;52.198;20.908;2023-02-01T00:00:35;2.20;99.90
21163;DHT22;10739;52.198;20.908;2023-02-01T00:03:01;2.20;99.90
21163;DHT22;10739;52.198;20.908;2023-02-01T00:05:28;2.30;99.90
21163;DHT22;10739;52.198;20.908;2023-02-01T00:07:54;2.30;99.90
21163;DHT22;10739;52.198;20.908;2023-02-01T00:10:21;2.30;99.90
21163;DHT22;10739;52.198;20.908;2023-02-01T00:12:47;2.30;99.90
21163;DHT22;10739;52.198;20.908;2023-02-01T00:15:14;2.40;99.90
21163;DHT22;10739;52.198;20.908;2023-02-01T00:17:43;2.40;99.90
21163;DHT22;10739;52.198;20.908;2023-02-01T00:20:09;2.50;99.90
21163;DHT22;10739;52.198;20.908;2023-02-01T00:22:36;2.50;99.90
21163;DHT22;10739;52.198;20.908;2023-02-01T00:25:03;2.50;99.90
21163;DHT22;10739;52.198;20.908;2023-02-01T00:27:29;2.60;99.90
21163;DHT22;10739;52.198;20.908;2023-02-01T00:29:56;2.60;99.90
21163;DHT22;10739;52.198;20.908;2023-02-01T00:32:22;2.60;99.90
21163;DHT22;10739;52.198;20.908;2023-02-01T00:34:49;2.60;99.90
21163;DHT22;10739;52.198;20.908;2023-02-01T00:37:16;2.70;99.90
21163;DHT22;10739;52.198;20.908;2023-02-01T00:39:42;2.70;99.90
21163;DHT22;10739;52.198;20.908;2023-02-01T00:42:08;2.70;99.90
21163;DHT22;10739;52.198;20.908;2023-02-01T00:44:35;2.70;99.90
21163;DHT22;10739;52.198;20.908;2023-02-01T00:47:01;2.70;99.90
21163;DHT22;10739;52.198;20.908;2023-02-01T00:49:28;2.60;99.90
21163;DHT22;10739;52.198;20.908;2023-02-01T00:51:55;2.70;99.90
21163;DHT22;10739;52.198;20.908;2023-02-01T00:54:22;2.70;99.90
21163;DHT22;10739;52.198;20.908;2023-02-01T00:56:48;2.70;99.90
21163;DHT22;10739;52.198;20.908;2023-02-01T00:59:15;2.80;99.90
21163;DHT22;10739;52.198;20.908;2023-02-01T01:01:41;2.80;99.90
21163;DHT22;10739;52.198;20.908;2023-02-01T01:04:07;2.90;99.90
21163;DHT22;10739;52.198;20.908;2023-02-01T01:06:34;2.90;99.90
21163;DHT22;10739;52.198;20.908;2023-02-01T01:09:04;2.80;99.90
21163;DHT22;10739;52.198;20.908;2023-02-01T01:11:35;2.80;99.90
21163;DHT22;10739;52.198;20.908;2023-02-01T01:14:05;2.70;99.90
21163;DHT22;10739;52.198;20.908;2023-02-01T01:16:33;2.70;99.90
21163;DHT22;10739;52.198;20.908;2023-02-01T01:19:01;2.60;99.90
21163;DHT22;10739;52.198;20.908;2023-02-01T01:21:28;2.60;99.90
21163;DHT22;10739;52.198;20.908;2023-02-01T01:23:55;2.60;99.90
21163;DHT22;10739;52.198;20.908;2023-02-01T01:26:24;2.60;99.90
21163;DHT22;10739;52.198;20.908;2023-02-01T01:28:54;2.50;99.90
21163;DHT22;10739;52.198;20.908;2023-02-01T01:31:22;2.60;99.90
21163;DHT22;10739;52.198;20.908;2023-02-01T01:33:54;2.60;99.90
21163;DHT22;10739;52.198;20.908;2023-02-01T01:36:22;2.60;99.90
21163;DHT22;10739;52.198;20.908;2023-02-01T01:38:49;2.60;99.90
21163;DHT22;10739;52.198;20.908;2023-02-01T01:41:20;2.60;99.90
21163;DHT22;10739;52.198;20.908;2023-02-01T01:43:57;2.70;99.90
21163;DHT22;10739;52.198;20.908;2023-02-01T01:46:32;2.70;99.90
21163;DHT22;10739;52.198;20.908;2023-02-01T01:49:15;2.70;99.90
21163;DHT22;10739;52.198;20.908;2023-02-01T01:51:53;2.60;99.90
21163;DHT22;10739;52.198;20.908;2023-02-01T01:54:44;2.60;99.90
21163;DHT22;10739;52.198;20.908;2023-02-01T01:57:27;2.60;99.90
21163;DHT22;10739;52.198;20.908;2023-02-01T02:00:07;2.60;99.90
21163;DHT22;10739;52.198;20.908;2023-02-01T02:02:37;2.60;99.90
21163;DHT22;10739;52.198;20.908;2023-02-01T02:05:05;2.60;99.90
21163;DHT22;10739;52.198;20.908;2023-02-01T02:07:36;2.60;99.90
21163;DHT22;10739;52.198;20.908;2023-02-01T02:10:08;2.50;99.90
21163;DHT22;10739;52.198;20.908;2023-02-01T02:12:41;2.50;99.90
21163;DHT22;10739;52.198;20.908;2023-02-01T02:15:12;2.50;99.90
21163;DHT22;10739;52.198;20.908;2023-02-01T02:18:05;2.50;99.90
21163;DHT22;10739;52.198;20.908;2023-02-01T02:34:15;2.60;99.90
21163;DHT22;10739;52.198;20.908;2023-02-01T02:39:34;2.70;99.90
21163;DHT22;10739;52.198;20.908;2023-02-01T02:45:32;2.60;99.90
21163;DHT22;10739;52.198;20.908;2023-02-01T02:48:43;2.60;99.90
21163;DHT22;10739;52.198;20.908;2023-02-01T02:51:50;2.60;99.90
21163;DHT22;10739;52.198;20.908;2023-02-01T02:54:46;2.50;99.90
21163;DHT22;10739;52.198;20.908;2023-02-01T02:57:28;2.60;99.90
21163;DHT22;10739;52.198;20.908;2023-02-01T03:00:25;2.50;99.90
21163;DHT22;10739;52.198;20.908;2023-02-01T03:03:13;2.50;99.90
21163;DHT22;10739;52.198;20.908;2023-02-01T03:05:58;2.50;99.90
21163;DHT22;10739;52.198;20.908;2023-02-01T03:08:30;2.50;99.90
21163;DHT22;10739;52.198;20.908;2023-02-01T03:11:05;2.50;99.90
21163;DHT22;10739;52.198;20.908;2023-02-01T03:19:07;2.60;99.90
21163;DHT22;10739;52.198;20.908;2023-02-01T03:21:40;2.60;99.90
21163;DHT22;10739;52.198;20.908;2023-02-01T03:24:14;2.50;99.90
21163;DHT22;10739;52.198;20.908;2023-02-01T03:27:32;2.50;99.90
21163;DHT22;10739;52.198;20.908;2023-02-01T03:30:21;2.50;99.90
21163;DHT22;10739;52.198;20.908;2023-02-01T03:32:55;2.40;99.90
21163;DHT22;10739;52.198;20.908;2023-02-01T03:38:27;2.30;99.90
21163;DHT22;10739;52.198;20.908;2023-02-01T03:41:19;2.30;99.90
21163;DHT22;10739;52.198;20.908;2023-02-01T03:44:24;2.30;99.90
21163;DHT22;10739;52.198;20.908;2023-02-01T03:49:43;2.40;99.90
21163;DHT22;10739;52.198;20.908;2023-02-01T03:52:20;2.40;99.90
21163;DHT22;10739;52.198;20.908;2023-02-01T03:54:51;2.40;99.90
21163;DHT22;10739;52.198;20.908;2023-02-01T03:57:23;2.40;99.90
21163;DHT22;10739;52.198;20.908;2023-02-01T04:00:14;2.40;99.90
21163;DHT22;10739;52.198;20.908;2023-02-01T04:02:43;2.40;99.90
21163;DHT22;10739;52.198;20.908;2023-02-01T04:05:09;2.50;99.90
21163;DHT22;10739;52.198;20.908;2023-02-01T04:07:35;2.50;99.90
21163;DHT22;10739;52.198;20.908;2023-02-01T04:10:02;2.50;99.90
21163;DHT22;10739;52.198;20.908;2023-02-01T04:12:29;2.50;99.90
21163;DHT22;10739;52.198;20.908;2023-02-01T04:14:55;2.50;99.90
21163;DHT22;10739;52.198;20.908;2023-02-01T04:17:22;2.50;99.90
21163;DHT22;10739;52.198;20.908;2023-02-01T04:19:48;2.60;99.90
21163;DHT22;10739;52.198;20.908;2023-02-01T04:22:14;2.60;99.90
21163;DHT22;10739;52.198;20.908;2023-02-01T04:24:41;2.60;99.90
21163;DHT22;10739;52.198;20.908;2023-02-01T04:27:08;2.60;99.90
21163;DHT22;10739;52.198;20.908;2023-02-01T04:29:34;2.60;99.90
21163;DHT22;10739;52.198;20.908;2023-02-01T04:32:01;2.70;99.90
21163;DHT22;10739;52.198;20.908;2023-02-01T04:34:27;2.60;99.90
21163;DHT22;10739;52.198;20.908;2023-02-01T04:36:54;2.70;99.90
21163;DHT22;10739;52.198;20.908;2023-02-01T04:39:20;2.70;99.90
21163;DHT22;10739;52.198;20.908;2023-02-01T04:41:47;2.70;99.90
21163;DHT22;10739;52.198;20.908;2023-02-01T04:44:17;2.70;99.90
21163;DHT22;10739;52.198;20.908;2023-02-01T04:46:45;2.70;99.90
21163;DHT22;10739;52.198;20.908;2023-02-01T04:49:13;2.70;99.90
21163;DHT22;10739;52.198;20.908;2023-02-01T04:51:44;2.70;99.90
21163;DHT22;10739;52.198;20.908;2023-02-01T04:54:21;2.70;99.90
21163;DHT22;10739;52.198;20.908;2023-02-01T04:56:48;2.70;99.90
21163;DHT22;10739;52.198;20.908;2023-02-01T04:59:15;2.70;99.90
21163;DHT22;10739;52.198;20.908;2023-02-01T05:01:41;2.70;99.90
21163;DHT22;10739;52.198;20.908;2023-02-01T05:04:07;2.70;99.90
21163;DHT22;10739;52.198;20.908;2023-02-01T05:06:34;2.70;99.90
21163;DHT22;10739;52.198;20.908;2023-02-01T05:09:00;2.80;99.90
21163;DHT22;10739;52.198;20.908;2023-02-01T05:11:26;2.80;99.90
21163;DHT22;10739;52.198;20.908;2023-02-01T05:14:11;2.80;99.90
21163;DHT22;10739;52.198;20.908;2023-02-01T05:16:37;2.80;99.90
21163;DHT22;10739;52.198;20.908;2023-02-01T05:19:03;2.80;99.90
21163;DHT22;10739;52.198;20.908;2023-02-01T05:21:30;2.80;99.90
21163;DHT22;10739;52.198;20.908;2023-02-01T05:23:57;2.80;99.90
21163;DHT22;10739;52.198;20.908;2023-02-01T05:26:36;2.80;99.90
21163;DHT22;10739;52.198;20.908;2023-02-01T05:29:04;2.80;99.90
21163;DHT22;10739;52.198;20.908;2023-02-01T05:31:31;2.80;99.90
21163;DHT22;10739;52.198;20.908;2023-02-01T05:33:57;2.80;99.90
21163;DHT22;10739;52.198;20.908;2023-02-01T05:36:24;2.80;99.90
21163;DHT22;10739;52.198;20.908;2023-02-01T05:38:51;2.70;99.90
21163;DHT22;10739;52.198;20.908;2023-02-01T05:41:17;2.70;99.90
21163;DHT22;10739;52.198;20.908;2023-02-01T05:43:43;2.70;99.90
21163;DHT22;10739;52.198;20.908;2023-02-01T05:46:10;2.70;99.90
21163;DHT22;10739;52.198;20.908;2023-02-01T05:48:42;2.60;99.90
21163;DHT22;10739;52.198;20.908;2023-02-01T05:51:10;2.50;99.90
21163;DHT22;10739;52.198;20.908;2023-02-01T05:53:37;2.50;99.90
21163;DHT22;10739;52.198;20.908;2023-02-01T05:56:04;2.50;99.90
21163;DHT22;10739;52.198;20.908;2023-02-01T05:58:31;2.60;99.90
21163;DHT22;10739;52.198;20.908;2023-02-01T06:01:01;2.50;99.90
21163;DHT22;10739;52.198;20.908;2023-02-01T06:03:28;2.60;99.90
21163;DHT22;10739;52.198;20.908;2023-02-01T06:05:55;2.60;99.90
21163;DHT22;10739;52.198;20.908;2023-02-01T06:08:21;2.60;99.90
21163;DHT22;10739;52.198;20.908;2023-02-01T06:10:50;2.70;99.90
21163;DHT22;10739;52.198;20.908;2023-02-01T06:13:16;2.60;99.90
21163;DHT22;10739;52.198;20.908;2023-02-01T06:15:42;2.70;99.90
21163;DHT22;10739;52.198;20.908;2023-02-01T06:18:09;2.70;99.90
21163;DHT22;10739;52.198;20.908;2023-02-01T06:20:35;2.60;99.90
21163;DHT22;10739;52.198;20.908;2023-02-01T06:23:02;2.60;99.90
21163;DHT22;10739;52.198;20.908;2023-02-01T06:25:30;2.70;99.90
21163;DHT22;10739;52.198;20.908;2023-02-01T06:28:00;2.70;99.90
21163;DHT22;10739;52.198;20.908;2023-02-01T06:30:27;2.70;99.90
21163;DHT22;10739;52.198;20.908;2023-02-01T06:32:53;2.70;99.90
21163;DHT22;10739;52.198;20.908;2023-02-01T06:35:20;2.70;99.90
21163;DHT22;10739;52.198;20.908;2023-02-01T06:37:47;2.70;99.90
21163;DHT22;10739;52.198;20.908;2023-02-01T06:40:13;2.70;99.90
21163;DHT22;10739;52.198;20.908;2023-02-01T06:42:40;2.70;99.90
21163;DHT22;10739;52.198;20.908;2023-02-01T06:45:06;2.70;99.90
21163;DHT22;10739;52.198;20.908;2023-02-01T06:47:33;2.70;99.90
21163;DHT22;10739;52.198;20.908;2023-02-01T06:50:00;2.70;99.90
21163;DHT22;10739;52.198;20.908;2023-02-01T06:52:26;2.80;99.90
21163;DHT22;10739;52.198;20.908;2023-02-01T06:54:52;2.70;99.90
21163;DHT22;10739;52.198;20.908;2023-02-01T06:57:19;2.80;99.90
21163;DHT22;10739;52.198;20.908;2023-02-01T06:59:45;2.70;99.90
21163;DHT22;10739;52.198;20.908;2023-02-01T07:02:11;2.80;99.90
21163;DHT22;10739;52.198;20.908;2023-02-01T07:04:38;2.80;99.90
21163;DHT22;10739;52.198;20.908;2023-02-01T07:07:05;2.80;99.90
21163;DHT22;10739;52.198;20.908;2023-02-01T07:09:31;2.80;99.90
21163;DHT22;10739;52.198;20.908;2023-02-01T07:11:57;2.80;99.90
21163;DHT22;10739;52.198;20.908;2023-02-01T07:14:24;2.80;99.90
21163;DHT22;10739;52.198;20.908;2023-02-01T07:16:50;2.80;99.90
21163;DHT22;10739;52.198;20.908;2023-02-01T07:19:17;2.80;99.90
21163;DHT22;10739;52.198;20.908;2023-02-01T07:21:43;2.80;99.90
21163;DHT22;10739;52.198;20.908;2023-02-01T07:24:09;2.80;99.90
21163;DHT22;10739;52.198;20.908;2023-02-01T07:26:35;2.80;99.90
21163;DHT22;10739;52.198;20.908;2023-02-01T07:29:02;2.80;99.90
21163;DHT22;10739;52.198;20.908;2023-02-01T07:31:28;2.80;99.90
21163;DHT22;10739;52.198;20.908;2023-02-01T07:33:56;2.80;99.90
21163;DHT22;10739;52.198;20.908;2023-02-01T07:36:24;2.90;99.90
21163;DHT22;10739;52.198;20.908;2023-02-01T07:38:50;3.00;99.90
21163;DHT22;10739;52.198;20.908;2023-02-01T07:41:17;2.90;99.90
21163;DHT22;10739;52.198;20.908;2023-02-01T07:43:44;2.90;99.90
21163;DHT22;10739;52.198;20.908;2023-02-01T07:46:11;3.00;99.90
21163;DHT22;10739;52.198;20.908;2023-02-01T07:48:38;3.00;99.90
21163;DHT22;10739;52.198;20.908;2023-02-01T07:51:15;2.90;99.90
21163;DHT22;10739;52.198;20.908;2023-02-01T07:53:43;2.90;99.90
21163;DHT22;10739;52.198;20.908;2023-02-01T07:56:20;2.90;99.90
21163;DHT22;10739;52.198;20.908;2023-02-01T07:58:49;2.90;99.90
21163;DHT22;10739;52.198;20.908;2023-02-01T08:01:22;2.90;99.90
21163;DHT22;10739;52.198;20.908;2023-02-01T08:03:52;3.00;99.90
21163;DHT22;10739;52.198;20.908;2023-02-01T08:06:24;3.00;99.90
21163;DHT22;10739;52.198;20.908;2023-02-01T08:08:52;3.00;99.90
21163;DHT22;10739;52.198;20.908;2023-02-01T08:11:20;3.00;99.90
21163;DHT22;10739;52.198;20.908;2023-02-01T08:13:47;3.00;99.90
21163;DHT22;10739;52.198;20.908;2023-02-01T08:16:16;3.10;99.90
21163;DHT22;10739;52.198;20.908;2023-02-01T08:18:45;3.10;99.90
21163;DHT22;10739;52.198;20.908;2023-02-01T08:21:20;3.00;99.90
21163;DHT22;10739;52.198;20.908;2023-02-01T08:23:49;3.00;99.90
21163;DHT22;10739;52.198;20.908;2023-02-01T08:26:21;3.00;99.90
21163;DHT22;10739;52.198;20.908;2023-02-01T08:28:55;3.00;99.90
21163;DHT22;10739;52.198;20.908;2023-02-01T08:31:24;3.00;99.90
21163;DHT22;10739;52.198;20.908;2023-02-01T08:33:54;3.10;99.90
21163;DHT22;10739;52.198;20.908;2023-02-01T08:36:24;3.10;99.90
21163;DHT22;10739;52.198;20.908;2023-02-01T08:38:51;3.10;99.90
21163;DHT22;10739;52.198;20.908;2023-02-01T08:41:24;3.10;99.90
21163;DHT22;10739;52.198;20.908;2023-02-01T08:43:52;3.10;99.90
21163;DHT22;10739;52.198;20.908;2023-02-01T08:46:20;3.00;99.90
21163;DHT22;10739;52.198;20.908;2023-02-01T08:48:47;3.00;99.90
21163;DHT22;10739;52.198;20.908;2023-02-01T08:51:17;3.00;99.90
21163;DHT22;10739;52.198;20.908;2023-02-01T08:53:46;3.00;99.90
21163;DHT22;10739;52.198;20.908;2023-02-01T08:56:15;3.00;99.90
21163;DHT22;10739;52.198;20.908;2023-02-01T08:58:43;3.10;99.90
21163;DHT22;10739;52.198;20.908;2023-02-01T09:01:14;3.10;99.90
21163;DHT22;10739;52.198;20.908;2023-02-01T09:03:41;3.20;99.90
21163;DHT22;10739;52.198;20.908;2023-02-01T09:06:11;3.60;99.90
21163;DHT22;10739;52.198;20.908;2023-02-01T09:08:40;3.30;99.90
21163;DHT22;10739;52.198;20.908;2023-02-01T09:11:11;3.40;99.90
21163;DHT22;10739;52.198;20.908;2023-02-01T09:13:42;3.40;99.90
21163;DHT22;10739;52.198;20.908;2023-02-01T09:16:08;3.40;99.90
21163;DHT22;10739;52.198;20.908;2023-02-01T09:18:34;3.40;99.90
21163;DHT22;10739;52.198;20.908;2023-02-01T09:21:08;3.40;99.90
21163;DHT22;10739;52.198;20.908;2023-02-01T09:23:34;3.50;99.90
21163;DHT22;10739;52.198;20.908;2023-02-01T09:26:03;3.50;99.90
21163;DHT22;10739;52.198;20.908;2023-02-01T09:28:31;3.60;99.90
21163;DHT22;10739;52.198;20.908;2023-02-01T09:30:58;3.60;99.90
21163;DHT22;10739;52.198;20.908;2023-02-01T09:33:27;3.60;99.90
21163;DHT22;10739;52.198;20.908;2023-02-01T09:35:59;3.60;99.90
21163;DHT22;10739;52.198;20.908;2023-02-01T09:38:27;3.70;99.90
21163;DHT22;10739;52.198;20.908;2023-02-01T09:40:55;3.70;99.90
21163;DHT22;10739;52.198;20.908;2023-02-01T09:46:27;3.70;99.90
21163;DHT22;10739;52.198;20.908;2023-02-01T09:49:02;3.80;99.90
21163;DHT22;10739;52.198;20.908;2023-02-01T09:51:38;3.90;99.90
21163;DHT22;10739;52.198;20.908;2023-02-01T09:54:13;3.90;99.90
21163;DHT22;10739;52.198;20.908;2023-02-01T09:56:56;4.00;99.90
21163;DHT22;10739;52.198;20.908;2023-02-01T09:59:38;4.10;99.90
21163;DHT22;10739;52.198;20.908;2023-02-01T10:02:17;4.10;99.90
21163;DHT22;10739;52.198;20.908;2023-02-01T10:04:47;4.10;99.90
21163;DHT22;10739;52.198;20.908;2023-02-01T10:10:30;4.10;99.90
21163;DHT22;10739;52.198;20.908;2023-02-01T10:18:49;4.30;99.90
21163;DHT22;10739;52.198;20.908;2023-02-01T10:24:45;4.20;99.90
21163;DHT22;10739;52.198;20.908;2023-02-01T10:27:48;4.10;99.90
21163;DHT22;10739;52.198;20.908;2023-02-01T10:30:19;4.10;99.90
21163;DHT22;10739;52.198;20.908;2023-02-01T10:32:52;4.10;99.90
21163;DHT22;10739;52.198;20.908;2023-02-01T10:35:30;4.10;99.90
21163;DHT22;10739;52.198;20.908;2023-02-01T10:38:01;4.10;99.90
21163;DHT22;10739;52.198;20.908;2023-02-01T10:40:28;4.00;99.90
21163;DHT22;10739;52.198;20.908;2023-02-01T10:43:00;4.10;99.90
21163;DHT22;10739;52.198;20.908;2023-02-01T10:45:28;4.10;99.90
21163;DHT22;10739;52.198;20.908;2023-02-01T10:47:58;4.10;99.90
21163;DHT22;10739;52.198;20.908;2023-02-01T10:54:10;4.10;99.90
21163;DHT22;10739;52.198;20.908;2023-02-01T10:56:25;4.10;99.90
21163;DHT22;10739;52.198;20.908;2023-02-01T10:59:01;4.00;99.90
21163;DHT22;10739;52.198;20.908;2023-02-01T11:01:43;4.10;99.90
21163;DHT22;10739;52.198;20.908;2023-02-01T11:04:19;4.10;99.90
21163;DHT22;10739;52.198;20.908;2023-02-01T11:07:12;4.10;99.90
21163;DHT22;10739;52.198;20.908;2023-02-01T11:09:49;4.20;99.90
21163;DHT22;10739;52.198;20.908;2023-02-01T11:15:18;4.40;99.90
21163;DHT22;10739;52.198;20.908;2023-02-01T11:17:50;4.60;99.90
21163;DHT22;10739;52.198;20.908;2023-02-01T11:22:59;4.50;99.90
21163;DHT22;10739;52.198;20.908;2023-02-01T11:25:27;4.50;99.90
21163;DHT22;10739;52.198;20.908;2023-02-01T11:27:55;4.50;99.90
21163;DHT22;10739;52.198;20.908;2023-02-01T11:30:32;4.40;99.90
21163;DHT22;10739;52.198;20.908;2023-02-01T11:33:04;4.40;99.90
21163;DHT22;10739;52.198;20.908;2023-02-01T11:35:32;4.40;99.90
21163;DHT22;10739;52.198;20.908;2023-02-01T11:38:12;4.30;99.90
21163;DHT22;10739;52.198;20.908;2023-02-01T11:40:46;4.20;99.90
21163;DHT22;10739;52.198;20.908;2023-02-01T11:43:26;4.20;99.90
21163;DHT22;10739;52.198;20.908;2023-02-01T11:46:00;4.30;99.90
21163;DHT22;10739;52.198;20.908;2023-02-01T11:48:30;4.30;99.90
21163;DHT22;10739;52.198;20.908;2023-02-01T11:51:12;4.30;99.90
21163;DHT22;10739;52.198;20.908;2023-02-01T11:57:14;4.50;99.90
21163;DHT22;10739;52.198;20.908;2023-02-01T12:02:56;4.70;99.90
21163;DHT22;10739;52.198;20.908;2023-02-01T12:18:08;4.40;99.90
21163;DHT22;10739;52.198;20.908;2023-02-01T12:38:44;4.20;99.90
21163;DHT22;10739;52.198;20.908;2023-02-01T12:44:44;4.20;99.90
21163;DHT22;10739;52.198;20.908;2023-02-01T12:47:24;4.20;99.90
21163;DHT22;10739;52.198;20.908;2023-02-01T12:50:12;4.20;99.90
21163;DHT22;10739;52.198;20.908;2023-02-01T12:52:51;4.20;99.90
21163;DHT22;10739;52.198;20.908;2023-02-01T12:55:27;4.30;99.90
21163;DHT22;10739;52.198;20.908;2023-02-01T13:00:52;4.40;99.90
21163;DHT22;10739;52.198;20.908;2023-02-01T13:07:26;4.50;99.90
21163;DHT22;10739;52.198;20.908;2023-02-01T13:12:54;4.50;99.90
21163;DHT22;10739;52.198;20.908;2023-02-01T13:15:33;4.60;99.90
21163;DHT22;10739;52.198;20.908;2023-02-01T13:18:06;4.50;99.90
21163;DHT22;10739;52.198;20.908;2023-02-01T13:20:49;4.50;99.90
21163;DHT22;10739;52.198;20.908;2023-02-01T13:23:30;4.40;99.90
21163;DHT22;10739;52.198;20.908;2023-02-01T13:25:59;4.40;99.90
21163;DHT22;10739;52.198;20.908;2023-02-01T13:28:50;4.40;99.90
21163;DHT22;10739;52.198;20.908;2023-02-01T13:34:47;4.40;99.90
21163;DHT22;10739;52.198;20.908;2023-02-01T13:43:53;4.20;99.90
21163;DHT22;10739;52.198;20.908;2023-02-01T13:46:45;4.20;99.90
21163;DHT22;10739;52.198;20.908;2023-02-01T13:49:24;4.20;99.90
21163;DHT22;10739;52.198;20.908;2023-02-01T13:51:56;4.00;99.90
21163;DHT22;10739;52.198;20.908;2023-02-01T13:54:32;3.90;99.90
21163;DHT22;10739;52.198;20.908;2023-02-01T13:57:03;4.00;99.90
21163;DHT22;10739;52.198;20.908;2023-02-01T14:03:09;3.90;99.90
21163;DHT22;10739;52.198;20.908;2023-02-01T14:10:55;3.90;99.90
21163;DHT22;10739;52.198;20.908;2023-02-01T14:13:33;3.90;99.90
21163;DHT22;10739;52.198;20.908;2023-02-01T14:26:46;4.00;99.90
21163;DHT22;10739;52.198;20.908;2023-02-01T14:29:33;4.00;99.90
21163;DHT22;10739;52.198;20.908;2023-02-01T14:42:28;4.00;99.90
21163;DHT22;10739;52.198;20.908;2023-02-01T14:47:50;4.10;99.90
21163;DHT22;10739;52.198;20.908;2023-02-01T14:50:27;4.10;99.90
21163;DHT22;10739;52.198;20.908;2023-02-01T14:55:59;4.10;99.90
21163;DHT22;10739;52.198;20.908;2023-02-01T14:58:57;4.10;99.90
21163;DHT22;10739;52.198;20.908;2023-02-01T15:01:34;4.10;99.90
21163;DHT22;10739;52.198;20.908;2023-02-01T15:07:04;4.20;99.90
21163;DHT22;10739;52.198;20.908;2023-02-01T15:09:34;4.10;99.90
21163;DHT22;10739;52.198;20.908;2023-02-01T15:14:43;4.10;99.90
21163;DHT22;10739;52.198;20.908;2023-02-01T15:17:19;4.00;99.90
21163;DHT22;10739;52.198;20.908;2023-02-01T15:20:00;4.10;99.90
21163;DHT22;10739;52.198;20.908;2023-02-01T15:22:30;4.00;99.90
21163;DHT22;10739;52.198;20.908;2023-02-01T15:24:59;4.00;99.90
21163;DHT22;10739;52.198;20.908;2023-02-01T15:27:28;4.00;99.90
21163;DHT22;10739;52.198;20.908;2023-02-01T15:30:24;4.00;99.90
21163;DHT22;10739;52.198;20.908;2023-02-01T15:33:16;4.00;99.90
21163;DHT22;10739;52.198;20.908;2023-02-01T15:35:47;4.00;99.90
21163;DHT22;10739;52.198;20.908;2023-02-01T15:43:25;4.00;99.90
21163;DHT22;10739;52.198;20.908;2023-02-01T15:45:57;4.00;99.90
21163;DHT22;10739;52.198;20.908;2023-02-01T15:48:27;4.00;99.90
21163;DHT22;10739;52.198;20.908;2023-02-01T15:51:01;4.00;99.90
21163;DHT22;10739;52.198;20.908;2023-02-01T15:53:28;3.90;99.90
21163;DHT22;10739;52.198;20.908;2023-02-01T15:56:00;3.80;99.90
21163;DHT22;10739;52.198;20.908;2023-02-01T15:58:29;3.70;99.90
21163;DHT22;10739;52.198;20.908;2023-02-01T16:01:03;3.70;99.90
21163;DHT22;10739;52.198;20.908;2023-02-01T16:03:41;3.60;99.90
21163;DHT22;10739;52.198;20.908;2023-02-01T16:06:25;3.50;99.90
21163;DHT22;10739;52.198;20.908;2023-02-01T16:09:01;3.50;99.90
21163;DHT22;10739;52.198;20.908;2023-02-01T16:11:46;3.40;99.90
21163;DHT22;10739;52.198;20.908;2023-02-01T16:14:26;3.40;99.90
21163;DHT22;10739;52.198;20.908;2023-02-01T16:16:55;3.40;99.90
21163;DHT22;10739;52.198;20.908;2023-02-01T16:19:24;3.40;99.90
21163;DHT22;10739;52.198;20.908;2023-02-01T16:21:56;3.50;99.90
21163;DHT22;10739;52.198;20.908;2023-02-01T16:24:24;3.50;99.90
21163;DHT22;10739;52.198;20.908;2023-02-01T16:26:51;3.60;99.90
21163;DHT22;10739;52.198;20.908;2023-02-01T16:29:18;3.50;99.90
21163;DHT22;10739;52.198;20.908;2023-02-01T16:31:44;3.60;99.90
21163;DHT22;10739;52.198;20.908;2023-02-01T16:34:15;3.50;99.90
21163;DHT22;10739;52.198;20.908;2023-02-01T16:36:49;3.50;99.90
21163;DHT22;10739;52.198;20.908;2023-02-01T16:39:23;3.50;99.90
21163;DHT22;10739;52.198;20.908;2023-02-01T16:41:50;3.50;99.90
21163;DHT22;10739;52.198;20.908;2023-02-01T16:44:17;3.50;99.90
21163;DHT22;10739;52.198;20.908;2023-02-01T16:46:45;3.50;99.90
21163;DHT22;10739;52.198;20.908;2023-02-01T16:49:24;3.50;99.90
21163;DHT22;10739;52.198;20.908;2023-02-01T16:51:52;3.60;99.90
21163;DHT22;10739;52.198;20.908;2023-02-01T16:54:23;3.60;99.90
21163;DHT22;10739;52.198;20.908;2023-02-01T16:56:50;3.50;99.90
21163;DHT22;10739;52.198;20.908;2023-02-01T16:59:16;3.50;99.90
21163;DHT22;10739;52.198;20.908;2023-02-01T17:01:42;3.50;99.90
21163;DHT22;10739;52.198;20.908;2023-02-01T17:04:11;3.50;99.90
21163;DHT22;10739;52.198;20.908;2023-02-01T17:06:38;3.50;99.90
21163;DHT22;10739;52.198;20.908;2023-02-01T17:09:05;3.50;99.90
21163;DHT22;10739;52.198;20.908;2023-02-01T17:11:32;3.50;99.90
21163;DHT22;10739;52.198;20.908;2023-02-01T17:14:17;3.40;99.90
21163;DHT22;10739;52.198;20.908;2023-02-01T17:16:48;3.50;99.90
21163;DHT22;10739;52.198;20.908;2023-02-01T17:19:21;3.40;99.90
21163;DHT22;10739;52.198;20.908;2023-02-01T17:21:53;3.40;99.90
21163;DHT22;10739;52.198;20.908;2023-02-01T17:24:27;3.40;99.90
21163;DHT22;10739;52.198;20.908;2023-02-01T17:27:04;3.40;99.90
21163;DHT22;10739;52.198;20.908;2023-02-01T17:29:31;3.40;99.90
21163;DHT22;10739;52.198;20.908;2023-02-01T17:32:13;3.40;99.90
21163;DHT22;10739;52.198;20.908;2023-02-01T17:35:23;3.40;99.90
21163;DHT22;10739;52.198;20.908;2023-02-01T17:37:50;3.30;99.90
21163;DHT22;10739;52.198;20.908;2023-02-01T17:40:18;3.40;99.90
21163;DHT22;10739;52.198;20.908;2023-02-01T17:42:44;3.40;99.90
21163;DHT22;10739;52.198;20.908;2023-02-01T17:45:24;3.30;99.90
21163;DHT22;10739;52.198;20.908;2023-02-01T17:48:03;3.40;99.90
21163;DHT22;10739;52.198;20.908;2023-02-01T17:50:32;3.40;99.90
21163;DHT22;10739;52.198;20.908;2023-02-01T17:53:01;3.40;99.90
21163;DHT22;10739;52.198;20.908;2023-02-01T17:55:28;3.40;99.90
21163;DHT22;10739;52.198;20.908;2023-02-01T17:57:55;3.30;99.90
21163;DHT22;10739;52.198;20.908;2023-02-01T18:00:21;3.30;99.90
21163;DHT22;10739;52.198;20.908;2023-02-01T18:02:48;3.30;99.90
21163;DHT22;10739;52.198;20.908;2023-02-01T18:05:19;3.30;99.90
21163;DHT22;10739;52.198;20.908;2023-02-01T18:07:54;3.30;99.90
21163;DHT22;10739;52.198;20.908;2023-02-01T18:10:20;3.20;99.90
21163;DHT22;10739;52.198;20.908;2023-02-01T18:12:47;3.30;99.90
21163;DHT22;10739;52.198;20.908;2023-02-01T18:15:22;3.20;99.90
21163;DHT22;10739;52.198;20.908;2023-02-01T18:17:51;3.20;99.90
21163;DHT22;10739;52.198;20.908;2023-02-01T18:20:23;3.20;99.90
21163;DHT22;10739;52.198;20.908;2023-02-01T18:22:52;3.20;99.90
21163;DHT22;10739;52.198;20.908;2023-02-01T18:25:25;3.10;99.90
21163;DHT22;10739;52.198;20.908;2023-02-01T18:27:56;3.10;99.90
21163;DHT22;10739;52.198;20.908;2023-02-01T18:30:27;3.00;99.90
21163;DHT22;10739;52.198;20.908;2023-02-01T18:32:55;2.90;99.90
21163;DHT22;10739;52.198;20.908;2023-02-01T18:35:30;3.10;99.90
21163;DHT22;10739;52.198;20.908;2023-02-01T18:37:57;3.10;99.90
21163;DHT22;10739;52.198;20.908;2023-02-01T18:40:28;3.10;99.90